Flight Track Log - Related Links

Times and Time Zones

All times are in EDT time to prevent confusion due to time zone crossing. See the GGA1 flight status page for this flight to view local times or setup timezone preferences in your user account.

Time Position Orientation Groundspeed Altitude Reporting Facility
EDT Latitude Longitude Course Direction KTS MPH feet Rate Location/Type
Tue 05:14:48 PM 33.8833 -83.3500 151° Southeast 155 178 4,200  Level Atlanta TRACON
Tue 05:15:48 PM 33.8333 -83.3500 180° South 161 185 6,200 1,867 Climbing Atlanta TRACON
Tue 05:17:00 PM 33.7649 -83.3674 198° South  Level FlightAware Approximate
Tue 05:17:48 PM 33.7500 -83.3500 198° South 168 193 9,800  Level Atlanta TRACON
Tue 05:18:48 PM 33.7000 -83.3667 195° South 203 234 10,000 50 Climbing Atlanta TRACON
Tue 05:19:00 PM 33.6958 -83.6166 194° South  Level Estimated
Tue 05:20:00 PM 33.6447 -83.5831 151° Southeast  Level FlightAware Approximate
Tue 05:20:00 PM 33.6393 -83.4136 194° South  Level FlightAware Approximate
Tue 05:21:48 PM 33.5000 -83.4167 196° South 240 276 10,000  Level Atlanta TRACON
Tue 05:22:48 PM 33.4333 -83.4333 192° South 240 276 10,000  Level Atlanta TRACON
Tue 05:23:48 PM 33.3667 -83.4500 192° South 238 274 10,000  Level Atlanta TRACON
Tue 05:24:48 PM 33.3000 -83.4667 192° South 239 275 10,000  Level Atlanta TRACON
Tue 05:25:48 PM 33.2333 -83.4833 192° South 239 275 10,000  Level Atlanta TRACON
Tue 05:27:00 PM 33.2458 -83.5405 196° South  Level FlightAware Approximate
Tue 05:27:00 PM 33.1731 -83.5256 210° Southwest  Level FlightAware Approximate
Tue 05:27:48 PM 33.1333 -83.5500 210° Southwest 241 277 10,000  Level Atlanta TRACON
Tue 05:29:00 PM 33.0742 -83.5944 212° Southwest  Level FlightAware Approximate
Tue 05:30:48 PM 33.0333 -83.7667 245° Southwest 241 277 10,000  Level Atlanta TRACON
Tue 05:31:48 PM 33.0167 -83.8333 253° West 240 276 10,000  Level Atlanta TRACON
Tue 05:32:48 PM 32.9833 -83.9167 245° Southwest 240 276 10,000  Level Atlanta TRACON
Tue 05:33:48 PM 32.9500 -83.9833 239° Southwest 240 276 10,000  Level Atlanta TRACON
Tue 05:34:48 PM 32.9167 -84.0500 239° Southwest 240 276 10,000  Level Atlanta TRACON
Tue 05:35:48 PM 32.8833 -84.1167 239° Southwest 240 276 10,000  Level Atlanta TRACON
Tue 05:36:00 PM 32.8938 -84.0325 245° Southwest  Level FlightAware Approximate
Tue 05:36:48 PM 32.8500 -84.2000 245° Southwest 240 276 10,000  Level Atlanta TRACON
Tue 05:37:48 PM 32.8167 -84.2667 239° Southwest 243 280 9,800 -450 Descending Atlanta TRACON
Tue 05:38:48 PM 32.7833 -84.3333 239° Southwest 251 289 9,100 -750 Descending Atlanta TRACON
Tue 05:39:48 PM 32.7500 -84.4167 245° Southwest 254 292 8,300 -1,000 Descending Atlanta TRACON
Tue 05:41:00 PM 32.7053 -84.4838 232° Southwest  Level FlightAware Approximate
Tue 05:41:48 PM 32.6833 -84.5500 232° Southwest 246 283 6,100  Level Atlanta TRACON
Tue 05:42:48 PM 32.6667 -84.6167 253° West 238 274 4,800 -1,500 Descending Atlanta TRACON
Tue 05:43:48 PM 32.6333 -84.7000 245° Southwest 230 265 3,100 -900 Descending Atlanta TRACON
Tue 05:44:48 PM 32.6000 -84.7500 232° Southwest 180 207 3,000 -316 Descending Atlanta TRACON
Tue 05:45:42 PM 32.5833 -84.8000 248° West 165 190 2,500 -350 Descending Atlanta TRACON
Tue 05:46:48 PM 32.5667 -84.8500 248° West 180 207 2,300 -429 Descending Atlanta TRACON
Tue 05:47:48 PM 32.5500 -84.9000 248° West 151 174 1,600 -700 Descending Atlanta TRACON
Tue 05:49:00 PM 32.5163 -84.9389 239° Southwest  Level Estimated
Tue 05:56:00 PM 32.5163 -84.9389 239° Southwest  Level Estimated
Tue 05:57:00 PM 32.5163 -84.9389 239° Southwest  Level Estimated

Login

Don't have an account? Register now (free) for customized features, flight alerts, and more!